Terminal Aerodrome Forecast
Issued by NWS Charleston, WV

Home | Current Version | Previous Version | Text Only | Print | Product List | Glossary On
Versions: 1 2 3 4 5 6 7 8 9 10 11 12 13 14 15 16 17 18 19 20 21 22 23 24
000
FTUS41 KRLX 170547 AAC
TAFEKN
TAF AMD
KEKN 170547Z 1706/1806 29004KT 3SM -SN OVC035
      TEMPO 1706/1710 1 1/2SM -SN BKN015
     FM171000 00000KT 6SM -SHSN BKN025
      TEMPO 1710/1714 4SM -SHSN BKN008
     FM171400 30003KT 6SM -SHSN BKN012
     FM171700 30004KT P6SM SCT015
     FM172200 28005KT P6SM SCT025
     FM172300 28006KT P6SM BKN015
     FM180400 27007KT P6SM BKN008=

USA.gov is the U.S. government's official web portal to all federal, state and local government web resources and services.